createdAt,value
2017-08-09T00:00:46.551Z,99.99
2017-08-09T00:01:47.982Z,99.99
2017-08-09T00:02:49.981Z,99.99
2017-08-09T00:03:51.932Z,99.99
2017-08-09T00:04:54.232Z,99.99
2017-08-09T00:05:56.530Z,99.99
2017-08-09T00:06:58.899Z,99.99
2017-08-09T00:08:00.335Z,99.99
2017-08-09T00:09:02.622Z,99.99
2017-08-09T00:10:04.837Z,99.99
2017-08-09T00:11:06.267Z,99.99
2017-08-09T00:12:08.389Z,99.99
2017-08-09T00:13:10.648Z,99.99
2017-08-09T00:14:12.846Z,99.99
2017-08-09T00:15:14.275Z,99.99
2017-08-09T00:16:16.602Z,99.99
2017-08-09T00:17:18.846Z,99.99
2017-08-09T00:18:20.274Z,99.99
2017-08-09T00:19:22.519Z,99.99
2017-08-09T00:20:24.820Z,99.99
2017-08-09T00:21:26.246Z,99.99
2017-08-09T00:22:28.150Z,99.99
2017-08-09T00:23:30.494Z,99.99
2017-08-09T00:24:32.682Z,99.99
2017-08-09T00:25:34.900Z,99.99
2017-08-09T00:26:36.328Z,99.99
2017-08-09T00:27:38.465Z,99.99
2017-08-09T00:28:40.528Z,99.99
2017-08-09T00:29:42.548Z,99.99
2017-08-09T00:30:44.620Z,99.99
2017-08-09T00:31:47.028Z,99.99
2017-08-09T00:32:49.356Z,99.99
2017-08-09T00:33:50.784Z,99.99
2017-08-09T00:34:53.021Z,99.99
2017-08-09T00:35:55.112Z,99.99
2017-08-09T00:36:57.169Z,99.99
2017-08-09T00:37:59.156Z,99.99
2017-08-09T00:39:01.361Z,99.99
2017-08-09T00:40:02.782Z,99.99
2017-08-09T00:41:05.113Z,99.99
2017-08-09T00:42:07.184Z,99.99
2017-08-09T00:43:09.206Z,99.99
2017-08-09T00:44:11.357Z,99.99
2017-08-09T00:45:12.784Z,99.99
2017-08-09T00:46:14.673Z,99.99
2017-08-09T00:47:16.657Z,99.99
2017-08-09T00:48:18.632Z,99.99
2017-08-09T00:49:20.648Z,99.99
2017-08-09T00:50:22.612Z,99.99
2017-08-09T00:51:24.635Z,99.99
2017-08-09T00:52:26.608Z,99.99
2017-08-09T00:53:28.834Z,99.99
2017-08-09T00:54:31.107Z,99.99
2017-08-09T00:55:33.228Z,99.99
2017-08-09T00:56:35.506Z,99.99
2017-08-09T00:57:36.938Z,99.99
2017-08-09T00:58:38.996Z,99.99
2017-08-09T00:59:40.994Z,99.99
2017-08-09T01:00:43.043Z,99.99
2017-08-09T01:01:45.028Z,99.99
2017-08-09T01:02:47.170Z,99.99
2017-08-09T01:03:49.206Z,99.99
2017-08-09T01:04:51.427Z,99.99
2017-08-09T01:05:52.846Z,99.99
2017-08-09T01:06:54.977Z,99.99
2017-08-09T01:07:57.149Z,99.99
2017-08-09T01:08:59.385Z,99.99
2017-08-09T01:10:00.806Z,99.99
2017-08-09T01:11:03.007Z,99.99
2017-08-09T01:12:05.207Z,99.99
2017-08-09T01:13:06.640Z,99.99
2017-08-09T01:14:08.615Z,99.99
2017-08-09T01:15:10.639Z,99.99
2017-08-09T01:16:12.718Z,99.99
2017-08-09T01:17:14.738Z,99.99
2017-08-09T01:18:16.733Z,99.99
2017-08-09T01:19:19.139Z,99.99
2017-08-09T01:20:20.568Z,99.99
2017-08-09T01:21:22.579Z,99.99
2017-08-09T01:22:24.936Z,99.99
2017-08-09T01:23:27.247Z,99.99
2017-08-09T01:24:29.472Z,99.99
2017-08-09T01:25:30.898Z,99.99
2017-08-09T01:26:33.233Z,99.99
2017-08-09T01:27:35.491Z,99.99
2017-08-09T01:28:36.925Z,99.99
2017-08-09T01:29:39.236Z,99.99
2017-08-09T01:30:40.657Z,99.99
2017-08-09T01:31:43.023Z,99.99
2017-08-09T01:32:45.239Z,99.99
2017-08-09T01:33:47.194Z,99.99
2017-08-09T01:34:49.593Z,99.99
2017-08-09T01:35:51.752Z,99.99
2017-08-09T01:36:53.747Z,99.99
2017-08-09T01:37:55.739Z,99.99
2017-08-09T01:38:58.118Z,99.99
2017-08-09T01:40:00.249Z,99.99
2017-08-09T01:41:02.506Z,99.99
2017-08-09T01:42:04.499Z,99.99
2017-08-09T01:43:06.470Z,99.99
2017-08-09T01:44:07.893Z,99.99
2017-08-09T01:45:09.970Z,99.99
2017-08-09T01:46:12.000Z,99.99
2017-08-09T01:47:14.068Z,99.99
2017-08-09T01:48:16.478Z,99.99
2017-08-09T01:49:18.785Z,99.99
2017-08-09T01:50:20.218Z,99.99
2017-08-09T01:51:22.191Z,99.99
2017-08-09T01:52:24.208Z,99.99
2017-08-09T01:53:26.275Z,99.99
2017-08-09T01:54:28.303Z,99.99
2017-08-09T01:55:30.305Z,99.99
2017-08-09T01:56:32.336Z,99.99
2017-08-09T01:57:34.497Z,99.99
2017-08-09T01:58:35.924Z,99.99
2017-08-09T01:59:38.295Z,99.99
2017-08-09T02:00:39.721Z,99.99
2017-08-09T02:01:41.158Z,99.99
2017-08-09T02:02:42.577Z,99.99
2017-08-09T02:03:44.008Z,99.99
2017-08-09T02:04:45.429Z,99.99
2017-08-09T02:05:46.853Z,99.99
2017-08-09T02:06:48.271Z,99.99
2017-08-09T02:07:49.695Z,99.99
2017-08-09T02:08:51.116Z,99.99
2017-08-09T02:09:52.550Z,99.99
2017-08-09T02:10:53.954Z,99.99
2017-08-09T02:11:55.372Z,99.99
2017-08-09T02:12:56.796Z,99.99
2017-08-09T02:13:58.223Z,99.99
2017-08-09T02:14:59.669Z,99.99
2017-08-09T02:16:01.072Z,99.99
2017-08-09T02:17:02.502Z,99.99
2017-08-09T02:18:03.920Z,99.99
2017-08-09T02:19:05.352Z,99.99
2017-08-09T02:20:06.776Z,99.99
2017-08-09T02:21:08.197Z,99.99
2017-08-09T02:22:09.647Z,99.99
2017-08-09T02:23:11.084Z,99.99
2017-08-09T02:24:12.511Z,99.99
2017-08-09T02:25:13.936Z,99.99
2017-08-09T02:26:15.446Z,99.99
2017-08-09T02:27:16.868Z,99.99
2017-08-09T02:28:18.288Z,99.99
2017-08-09T02:29:19.717Z,99.99
2017-08-09T02:30:21.155Z,99.99
2017-08-09T02:31:22.578Z,99.99
2017-08-09T02:32:24.003Z,99.99
2017-08-09T02:33:25.438Z,99.99
2017-08-09T02:34:26.859Z,99.99
2017-08-09T02:35:28.283Z,99.99
2017-08-09T02:36:29.708Z,99.99
2017-08-09T02:37:31.129Z,99.99
2017-08-09T02:38:32.546Z,99.99
2017-08-09T02:39:33.970Z,99.99
2017-08-09T02:40:35.393Z,99.99
2017-08-09T02:41:36.816Z,99.99
2017-08-09T02:42:38.234Z,99.99
2017-08-09T02:43:39.665Z,99.99
2017-08-09T02:44:41.094Z,99.99
2017-08-09T02:45:42.516Z,99.99
2017-08-09T02:46:43.936Z,99.99
2017-08-09T02:47:45.359Z,99.99
2017-08-09T02:48:46.781Z,99.99
2017-08-09T02:49:48.198Z,99.99
2017-08-09T02:50:49.620Z,99.99
2017-08-09T02:51:51.052Z,99.99
2017-08-09T02:52:52.492Z,99.99
2017-08-09T02:53:53.909Z,99.99
2017-08-09T02:54:55.337Z,99.99
2017-08-09T02:55:56.766Z,99.99
2017-08-09T02:56:58.197Z,99.99
2017-08-09T02:57:59.616Z,99.99
2017-08-09T02:59:01.041Z,99.99
2017-08-09T03:00:02.462Z,99.99
2017-08-09T03:01:03.891Z,99.99
2017-08-09T03:02:05.301Z,99.99
2017-08-09T03:03:06.729Z,99.99
2017-08-09T03:04:08.154Z,99.99
2017-08-09T03:05:09.572Z,99.99
2017-08-09T03:06:10.993Z,99.99
2017-08-09T03:07:12.413Z,99.99
2017-08-09T03:08:13.847Z,99.99
2017-08-09T03:09:15.267Z,99.99
2017-08-09T03:10:16.689Z,99.99
2017-08-09T03:11:18.106Z,99.99
2017-08-09T03:12:19.537Z,99.99
2017-08-09T03:13:21.835Z,99.99
2017-08-09T03:14:23.264Z,99.99
2017-08-09T03:15:24.687Z,99.99
2017-08-09T03:16:26.114Z,99.99
2017-08-09T03:17:27.538Z,99.99
2017-08-09T03:18:28.964Z,99.99
2017-08-09T03:19:30.391Z,99.99
2017-08-09T03:20:31.814Z,99.99
2017-08-09T03:21:33.249Z,99.99
2017-08-09T03:22:34.672Z,99.99
2017-08-09T03:23:36.094Z,99.99
2017-08-09T03:24:37.528Z,99.99
2017-08-09T03:25:38.954Z,99.99
2017-08-09T03:26:40.377Z,99.99
2017-08-09T03:27:41.801Z,99.99
2017-08-09T03:28:43.227Z,99.99
2017-08-09T03:29:44.646Z,99.99
2017-08-09T03:30:46.072Z,99.99
2017-08-09T03:31:47.497Z,99.99
2017-08-09T03:32:48.916Z,99.99
2017-08-09T03:33:50.336Z,99.99
2017-08-09T03:34:51.758Z,99.99
2017-08-09T03:35:53.177Z,99.99
2017-08-09T03:36:54.597Z,99.99
2017-08-09T03:37:56.023Z,99.99
2017-08-09T03:38:57.441Z,99.99
2017-08-09T03:39:58.870Z,99.99
2017-08-09T03:41:00.285Z,99.99
2017-08-09T03:42:01.717Z,99.99
2017-08-09T03:43:03.143Z,99.99
2017-08-09T03:44:04.567Z,99.99
2017-08-09T03:45:06.007Z,99.99
2017-08-09T03:46:07.431Z,99.99
2017-08-09T03:47:08.867Z,99.99
2017-08-09T03:48:10.286Z,99.99
2017-08-09T03:49:11.715Z,99.99
2017-08-09T03:50:13.149Z,99.99
2017-08-09T03:51:14.578Z,99.99
2017-08-09T03:52:16.002Z,99.99
2017-08-09T03:53:17.427Z,99.99
2017-08-09T03:54:18.847Z,99.99
2017-08-09T03:55:20.281Z,99.99
2017-08-09T03:56:21.709Z,99.99
2017-08-09T03:57:23.129Z,99.99
2017-08-09T03:58:24.561Z,99.99
2017-08-09T03:59:25.978Z,99.99
2017-08-09T04:00:27.397Z,99.99
2017-08-09T04:01:28.821Z,99.99
2017-08-09T04:02:30.257Z,99.99
2017-08-09T04:03:31.662Z,99.99
2017-08-09T04:04:33.087Z,99.99
2017-08-09T04:05:34.510Z,99.99
2017-08-09T04:06:35.934Z,99.99
2017-08-09T04:07:37.354Z,99.99
2017-08-09T04:08:38.779Z,99.99
2017-08-09T04:09:40.210Z,99.99
2017-08-09T04:10:41.640Z,99.99
2017-08-09T04:11:43.060Z,99.99
2017-08-09T04:12:44.487Z,99.99
2017-08-09T04:13:45.913Z,99.99
2017-08-09T04:14:47.339Z,99.99
2017-08-09T04:15:48.772Z,99.99
2017-08-09T04:16:50.198Z,99.99
2017-08-09T04:17:51.617Z,99.99
2017-08-09T04:18:53.051Z,99.99
2017-08-09T04:19:54.467Z,99.99
2017-08-09T04:20:55.898Z,99.99
2017-08-09T04:21:57.326Z,99.99
2017-08-09T04:22:58.745Z,99.99
2017-08-09T04:24:00.170Z,99.99
2017-08-09T04:25:01.589Z,99.99
2017-08-09T04:26:03.009Z,99.99
2017-08-09T04:27:04.437Z,99.99
2017-08-09T04:28:05.856Z,99.99
2017-08-09T04:29:07.281Z,99.99
2017-08-09T04:30:08.707Z,99.99
2017-08-09T04:31:10.135Z,99.99
2017-08-09T04:32:11.570Z,99.99
2017-08-09T04:33:12.990Z,99.99
2017-08-09T04:34:14.430Z,99.99
2017-08-09T04:35:16.359Z,99.99
2017-08-09T04:36:17.894Z,99.99
2017-08-09T04:37:19.381Z,99.99
2017-08-09T04:38:20.809Z,99.99
2017-08-09T04:39:22.241Z,99.99
2017-08-09T04:40:23.666Z,99.99
2017-08-09T04:41:25.098Z,99.99
2017-08-09T04:42:26.519Z,99.99
2017-08-09T04:43:27.978Z,99.99
2017-08-09T04:44:29.406Z,99.99
2017-08-09T04:45:30.833Z,99.99
2017-08-09T04:46:32.256Z,99.99
2017-08-09T04:47:33.757Z,99.99
2017-08-09T04:48:35.272Z,99.99
2017-08-09T04:49:36.695Z,99.99
2017-08-09T04:50:38.122Z,99.99
2017-08-09T04:51:40.163Z,99.99
2017-08-09T04:52:41.586Z,99.99
2017-08-09T04:53:43.011Z,99.99
2017-08-09T04:54:44.437Z,99.99
2017-08-09T04:55:45.862Z,99.99
2017-08-09T04:56:47.290Z,99.99
2017-08-09T04:57:48.713Z,99.99
2017-08-09T04:58:50.138Z,99.99
2017-08-09T04:59:51.562Z,99.99
2017-08-09T05:00:52.996Z,99.99
2017-08-09T05:01:54.419Z,99.99
2017-08-09T05:02:55.851Z,99.99
2017-08-09T05:03:57.271Z,99.99
2017-08-09T05:04:58.704Z,99.99
2017-08-09T05:06:00.148Z,99.99
2017-08-09T05:07:01.547Z,99.99
2017-08-09T05:08:02.978Z,99.99
2017-08-09T05:09:04.402Z,99.99
2017-08-09T05:10:05.830Z,99.99
2017-08-09T05:11:07.261Z,99.99
2017-08-09T05:12:08.689Z,99.99
2017-08-09T05:13:10.121Z,99.99
2017-08-09T05:14:11.556Z,99.99
2017-08-09T05:15:12.973Z,99.99
2017-08-09T05:16:14.406Z,99.99
2017-08-09T05:17:15.825Z,99.99
2017-08-09T05:18:17.248Z,99.99
2017-08-09T05:19:18.676Z,99.99
2017-08-09T05:20:20.098Z,99.99
2017-08-09T05:21:21.527Z,99.99
2017-08-09T05:22:22.948Z,99.99
2017-08-09T05:23:24.374Z,99.99
2017-08-09T05:24:25.799Z,99.99
2017-08-09T05:25:27.220Z,99.99
2017-08-09T05:26:28.647Z,99.99
2017-08-09T05:27:30.076Z,99.99
2017-08-09T05:28:31.566Z,99.99
2017-08-09T05:29:32.991Z,99.99
2017-08-09T05:30:34.424Z,99.99
2017-08-09T05:31:35.852Z,99.99
2017-08-09T05:32:37.281Z,99.99
2017-08-09T05:33:38.709Z,99.99
2017-08-09T05:34:40.137Z,99.99
2017-08-09T05:35:41.572Z,99.99
2017-08-09T05:36:42.994Z,99.99
2017-08-09T05:37:44.424Z,99.99
2017-08-09T05:38:45.855Z,99.99
2017-08-09T05:39:47.322Z,99.99
2017-08-09T05:40:49.330Z,99.99
2017-08-09T05:41:50.759Z,99.99
2017-08-09T05:42:52.190Z,99.99
2017-08-09T05:43:53.625Z,99.99
2017-08-09T05:44:55.048Z,99.99
2017-08-09T05:45:56.482Z,99.99
2017-08-09T05:46:57.911Z,99.99
2017-08-09T05:47:59.342Z,99.99
2017-08-09T05:49:00.779Z,99.99
2017-08-09T05:50:02.212Z,99.99
2017-08-09T05:51:03.642Z,99.99
2017-08-09T05:52:05.069Z,99.99
2017-08-09T05:53:06.503Z,99.99
2017-08-09T05:54:07.939Z,99.99
2017-08-09T05:55:09.368Z,99.99
2017-08-09T05:56:10.806Z,99.99
2017-08-09T05:57:12.231Z,99.99
2017-08-09T05:58:13.654Z,99.99
2017-08-09T05:59:15.088Z,99.99
2017-08-09T06:00:16.522Z,99.99
2017-08-09T06:01:17.953Z,99.99
2017-08-09T06:02:19.378Z,99.99
2017-08-09T06:03:20.812Z,99.99
2017-08-09T06:04:22.246Z,99.99
2017-08-09T06:05:23.666Z,99.99
2017-08-09T06:06:25.100Z,99.99
2017-08-09T06:07:26.534Z,99.99
2017-08-09T06:08:27.962Z,99.99
2017-08-09T06:09:29.388Z,99.99
2017-08-09T06:10:30.815Z,99.99
2017-08-09T06:11:32.254Z,99.99
2017-08-09T06:12:33.690Z,99.99
2017-08-09T06:13:35.131Z,99.99
2017-08-09T06:14:36.562Z,99.99
2017-08-09T06:15:37.992Z,99.99
2017-08-09T06:16:39.481Z,99.99
2017-08-09T06:17:40.922Z,99.99
2017-08-09T06:18:42.350Z,99.99
2017-08-09T06:19:43.780Z,99.99
2017-08-09T06:20:45.212Z,99.99
2017-08-09T06:21:46.640Z,99.99
2017-08-09T06:22:48.070Z,99.99
2017-08-09T06:23:49.501Z,99.99
2017-08-09T06:24:50.922Z,99.99
2017-08-09T06:25:52.347Z,99.99
2017-08-09T06:26:53.839Z,99.99
2017-08-09T06:27:55.380Z,99.99
2017-08-09T06:28:57.651Z,99.99
2017-08-09T06:29:59.091Z,99.99
2017-08-09T06:31:00.526Z,99.99
2017-08-09T06:32:01.950Z,99.99
2017-08-09T06:33:03.380Z,99.99
2017-08-09T06:34:04.808Z,99.99
2017-08-09T06:35:06.247Z,99.99
2017-08-09T06:36:07.670Z,99.99
2017-08-09T06:37:09.099Z,99.99
2017-08-09T06:38:10.562Z,99.99
2017-08-09T06:39:11.968Z,99.99
2017-08-09T06:40:13.406Z,99.99
2017-08-09T06:41:14.835Z,99.99
2017-08-09T06:42:16.261Z,99.99
2017-08-09T06:43:17.692Z,99.99
2017-08-09T06:44:19.119Z,99.99
2017-08-09T06:45:20.549Z,99.99
2017-08-09T06:46:21.976Z,99.99
2017-08-09T06:47:23.399Z,99.99
2017-08-09T06:48:24.831Z,99.99
2017-08-09T06:49:26.256Z,99.99
2017-08-09T06:50:27.679Z,99.99
2017-08-09T06:51:29.104Z,99.99
2017-08-09T06:52:30.530Z,99.99
2017-08-09T06:53:31.959Z,99.99
2017-08-09T06:54:33.384Z,99.99
2017-08-09T06:55:34.819Z,99.99
2017-08-09T06:56:36.249Z,99.99
2017-08-09T06:57:37.680Z,99.99
2017-08-09T06:58:39.102Z,99.99
2017-08-09T06:59:40.528Z,99.99
2017-08-09T07:00:41.961Z,99.99
2017-08-09T07:01:43.394Z,99.99
2017-08-09T07:02:44.817Z,99.99
2017-08-09T07:03:46.244Z,99.99
2017-08-09T07:04:47.682Z,99.99
2017-08-09T07:05:50.343Z,99.99
2017-08-09T07:06:51.765Z,99.99
2017-08-09T07:07:53.204Z,99.99
2017-08-09T07:08:54.634Z,99.99
2017-08-09T07:09:56.055Z,99.99
2017-08-09T07:10:57.479Z,99.99
2017-08-09T07:11:58.911Z,99.99
2017-08-09T07:13:00.349Z,99.99
2017-08-09T07:14:01.786Z,99.99
2017-08-09T07:15:03.213Z,99.99
2017-08-09T07:16:04.645Z,99.99
2017-08-09T07:17:06.068Z,99.99
2017-08-09T07:18:07.495Z,99.99
2017-08-09T07:19:08.919Z,99.99
2017-08-09T07:20:10.350Z,99.99
2017-08-09T07:21:11.807Z,99.99
2017-08-09T07:22:13.208Z,99.99
2017-08-09T07:23:14.632Z,99.99
2017-08-09T07:24:16.062Z,99.99
2017-08-09T07:25:17.489Z,99.99
2017-08-09T07:26:18.918Z,99.99
2017-08-09T07:27:20.358Z,99.99
2017-08-09T07:28:21.784Z,99.99
2017-08-09T07:29:23.209Z,99.99
2017-08-09T07:30:24.642Z,99.99
2017-08-09T07:31:26.067Z,99.99
2017-08-09T07:32:27.506Z,99.99
2017-08-09T07:33:28.938Z,99.99
2017-08-09T07:34:30.375Z,99.99
2017-08-09T07:35:31.804Z,99.99
2017-08-09T07:36:33.235Z,99.99
2017-08-09T07:37:34.660Z,99.99
2017-08-09T07:38:36.092Z,99.99
2017-08-09T07:39:37.522Z,99.99
2017-08-09T07:40:38.951Z,99.99
2017-08-09T07:41:40.383Z,99.99
2017-08-09T07:42:41.814Z,99.99
2017-08-09T07:43:43.242Z,99.99
2017-08-09T07:44:44.675Z,99.99
2017-08-09T07:45:46.106Z,99.99
2017-08-09T07:46:47.543Z,99.99
2017-08-09T07:47:48.977Z,99.99
2017-08-09T07:48:50.395Z,99.99
2017-08-09T07:49:51.827Z,99.99
2017-08-09T07:50:53.255Z,99.99
2017-08-09T07:51:54.694Z,99.99
2017-08-09T07:52:56.113Z,99.99
2017-08-09T07:53:57.553Z,99.99
2017-08-09T07:54:58.987Z,99.99
2017-08-09T07:56:00.412Z,99.99
2017-08-09T07:57:01.866Z,99.99
2017-08-09T07:58:03.395Z,99.99
2017-08-09T07:59:04.842Z,99.99
2017-08-09T08:00:06.243Z,99.99
2017-08-09T08:01:07.701Z,99.99
2017-08-09T08:02:09.146Z,99.99
2017-08-09T08:03:10.574Z,99.99
2017-08-09T08:04:12.004Z,99.99
2017-08-09T08:05:13.462Z,99.99
2017-08-09T08:06:14.893Z,99.99
2017-08-09T08:07:16.346Z,99.99
2017-08-09T08:08:17.786Z,99.99
2017-08-09T08:09:19.227Z,99.99
2017-08-09T08:10:20.658Z,99.99
2017-08-09T08:11:22.094Z,99.99
2017-08-09T08:12:23.524Z,99.99
2017-08-09T08:13:24.963Z,99.99
2017-08-09T08:14:26.389Z,99.99
2017-08-09T08:15:27.826Z,99.99
2017-08-09T08:16:29.265Z,99.99
2017-08-09T08:17:30.696Z,99.99
2017-08-09T08:18:33.387Z,99.99
2017-08-09T08:19:34.815Z,99.99
2017-08-09T08:20:36.241Z,99.99
2017-08-09T08:21:37.676Z,99.99
2017-08-09T08:22:39.110Z,99.99
2017-08-09T08:23:40.545Z,99.99
2017-08-09T08:24:41.972Z,99.99
2017-08-09T08:25:43.473Z,99.99
2017-08-09T08:26:44.905Z,99.99
2017-08-09T08:27:46.332Z,99.99
2017-08-09T08:28:47.764Z,99.99
2017-08-09T08:29:49.190Z,99.99
2017-08-09T08:30:50.626Z,99.99
2017-08-09T08:31:52.064Z,99.99
2017-08-09T08:32:53.534Z,99.99
2017-08-09T08:33:54.971Z,99.99
2017-08-09T08:34:56.405Z,99.99
2017-08-09T08:35:57.843Z,99.99
2017-08-09T08:36:59.288Z,99.99
2017-08-09T08:38:00.716Z,99.99
2017-08-09T08:39:02.149Z,99.99
2017-08-09T08:40:03.582Z,99.99
2017-08-09T08:41:05.013Z,99.99
2017-08-09T08:42:06.545Z,99.99
2017-08-09T08:43:07.985Z,99.99
2017-08-09T08:44:09.414Z,99.99
2017-08-09T08:45:10.848Z,99.99
2017-08-09T08:46:12.276Z,99.99
2017-08-09T08:47:13.717Z,99.99
2017-08-09T08:48:15.148Z,99.99
2017-08-09T08:49:16.579Z,99.99
2017-08-09T08:50:18.015Z,99.99
2017-08-09T08:51:19.445Z,99.99
2017-08-09T08:52:20.887Z,99.99
2017-08-09T08:53:22.322Z,99.99
2017-08-09T08:54:23.769Z,99.99
2017-08-09T08:55:25.204Z,99.99
2017-08-09T08:56:26.632Z,99.99
2017-08-09T08:57:28.061Z,99.99
2017-08-09T08:58:29.494Z,99.99
2017-08-09T08:59:30.934Z,99.99
2017-08-09T09:00:32.362Z,99.99
2017-08-09T09:01:33.815Z,99.99
2017-08-09T09:02:35.260Z,99.99
2017-08-09T09:03:36.702Z,97.86
2017-08-09T09:04:38.130Z,99.99
2017-08-09T09:05:39.559Z,97.86
2017-08-09T09:06:40.996Z,98.72
2017-08-09T09:07:42.436Z,99.99
2017-08-09T09:08:43.861Z,96.56
2017-08-09T09:09:45.293Z,97.38
2017-08-09T09:10:46.722Z,97.76
2017-08-09T09:11:48.156Z,96.80
2017-08-09T09:12:49.590Z,98.05
2017-08-09T09:13:51.021Z,98.24
2017-08-09T09:14:52.472Z,98.72
2017-08-09T09:15:53.901Z,99.11
2017-08-09T09:16:55.334Z,99.99
2017-08-09T09:17:56.765Z,98.24
2017-08-09T09:18:58.198Z,96.99
2017-08-09T09:19:59.633Z,99.30
2017-08-09T09:21:01.069Z,99.99
2017-08-09T09:22:02.502Z,99.99
2017-08-09T09:23:03.928Z,99.99
2017-08-09T09:24:05.377Z,98.49
2017-08-09T09:25:06.805Z,97.67
2017-08-09T09:26:08.234Z,99.50
2017-08-09T09:27:09.664Z,97.67
2017-08-09T09:28:11.098Z,97.38
2017-08-09T09:29:12.534Z,96.80
2017-08-09T09:30:13.971Z,96.70
2017-08-09T09:31:15.393Z,96.46
2017-08-09T09:32:16.837Z,96.37
2017-08-09T09:33:18.316Z,94.63
2017-08-09T09:34:19.750Z,95.31
2017-08-09T09:35:21.170Z,95.89
2017-08-09T09:36:22.599Z,95.36
2017-08-09T09:37:24.033Z,96.27
2017-08-09T09:38:25.466Z,97.24
2017-08-09T09:39:26.898Z,96.56
2017-08-09T09:40:28.339Z,96.56
2017-08-09T09:41:29.769Z,94.39
2017-08-09T09:42:31.202Z,96.03
2017-08-09T09:43:32.642Z,96.46
2017-08-09T09:44:34.073Z,96.41
2017-08-09T09:45:35.512Z,92.85
2017-08-09T09:46:36.934Z,95.64
2017-08-09T09:47:38.363Z,93.62
2017-08-09T09:48:39.796Z,97.28
2017-08-09T09:49:41.229Z,95.31
2017-08-09T09:50:42.653Z,93.33
2017-08-09T09:51:44.086Z,94.87
2017-08-09T09:52:45.514Z,96.75
2017-08-09T09:53:46.946Z,95.64
2017-08-09T09:54:48.379Z,94.48
2017-08-09T09:55:49.814Z,96.70
2017-08-09T09:56:51.241Z,96.41
2017-08-09T09:57:52.678Z,93.62
2017-08-09T09:58:54.118Z,94.24
2017-08-09T09:59:55.555Z,94.87
2017-08-09T10:00:56.981Z,97.38
2017-08-09T10:01:58.417Z,96.56
2017-08-09T10:02:59.851Z,97.42
2017-08-09T10:04:01.285Z,98.97
2017-08-09T10:05:02.714Z,94.82
2017-08-09T10:06:04.154Z,94.97
2017-08-09T10:07:05.599Z,99.59
2017-08-09T10:08:07.029Z,97.09
2017-08-09T10:09:08.464Z,97.86
2017-08-09T10:10:09.895Z,96.42
2017-08-09T10:11:11.333Z,96.99
2017-08-09T10:12:12.765Z,95.84
2017-08-09T10:13:14.194Z,95.84
2017-08-09T10:14:15.637Z,97.57
2017-08-09T10:15:17.068Z,97.24
2017-08-09T10:16:19.202Z,94.06
2017-08-09T10:17:20.644Z,96.46
2017-08-09T10:18:22.074Z,97.47
2017-08-09T10:19:23.524Z,96.22
2017-08-09T10:20:24.952Z,97.57
2017-08-09T10:21:26.382Z,98.49
2017-08-09T10:22:27.819Z,99.16
2017-08-09T10:23:29.256Z,96.12
2017-08-09T10:24:30.683Z,93.23
2017-08-09T10:25:32.114Z,92.02
2017-08-09T10:26:33.545Z,90.63
2017-08-09T10:27:34.975Z,91.88
2017-08-09T10:28:36.410Z,90.92
2017-08-09T10:29:37.840Z,89.86
2017-08-09T10:30:39.277Z,91.30
2017-08-09T10:31:40.710Z,92.61
2017-08-09T10:32:42.139Z,95.59
2017-08-09T10:33:43.568Z,95.26
2017-08-09T10:34:45.011Z,91.88
2017-08-09T10:35:46.437Z,92.17
2017-08-09T10:36:47.868Z,90.92
2017-08-09T10:37:49.300Z,90.29
2017-08-09T10:38:50.729Z,89.47
2017-08-09T10:39:52.164Z,93.43
2017-08-09T10:40:53.606Z,93.81
2017-08-09T10:41:55.034Z,93.95
2017-08-09T10:42:56.467Z,89.47
2017-08-09T10:43:57.897Z,90.62
2017-08-09T10:44:59.333Z,87.34
2017-08-09T10:46:00.758Z,87.92
2017-08-09T10:47:02.209Z,86.08
2017-08-09T10:48:03.641Z,88.35
2017-08-09T10:49:05.071Z,87.15
2017-08-09T10:50:06.513Z,88.98
2017-08-09T10:51:07.945Z,88.50
2017-08-09T10:52:09.393Z,91.39
2017-08-09T10:53:10.818Z,88.50
2017-08-09T10:54:12.256Z,87.67
2017-08-09T10:55:13.688Z,87.58
2017-08-09T10:56:15.125Z,88.73
2017-08-09T10:57:16.552Z,85.84
2017-08-09T10:58:17.985Z,86.38
2017-08-09T10:59:19.422Z,88.54
2017-08-09T11:00:20.859Z,87.82
2017-08-09T11:01:22.292Z,87.73
2017-08-09T11:02:23.730Z,88.50
2017-08-09T11:03:25.167Z,87.19
2017-08-09T11:04:26.598Z,88.68
2017-08-09T11:05:28.041Z,87.04
2017-08-09T11:06:29.474Z,85.15
2017-08-09T11:07:30.906Z,85.21
2017-08-09T11:08:32.342Z,84.54
2017-08-09T11:09:33.777Z,86.47
2017-08-09T11:10:35.242Z,87.01
2017-08-09T11:11:36.669Z,85.89
2017-08-09T11:12:38.118Z,86.52
2017-08-09T11:13:39.552Z,85.49
2017-08-09T11:14:40.994Z,87.13
2017-08-09T11:15:42.428Z,86.07
2017-08-09T11:16:43.855Z,85.69
2017-08-09T11:17:45.289Z,85.94
2017-08-09T11:18:46.730Z,87.38
2017-08-09T11:19:48.164Z,87.33
2017-08-09T11:20:49.601Z,85.50
2017-08-09T11:21:51.031Z,85.46
2017-08-09T11:22:52.463Z,87.10
2017-08-09T11:23:53.908Z,89.51
2017-08-09T11:24:55.344Z,89.18
2017-08-09T11:25:56.774Z,88.99
2017-08-09T11:26:58.214Z,89.32
2017-08-09T11:27:59.655Z,90.72
2017-08-09T11:29:01.092Z,90.24
2017-08-09T11:30:02.525Z,89.51
2017-08-09T11:31:03.959Z,87.59
2017-08-09T11:32:05.392Z,86.04
2017-08-09T11:33:06.826Z,86.14
2017-08-09T11:34:08.257Z,86.72
2017-08-09T11:35:09.693Z,89.56
2017-08-09T11:36:11.127Z,89.61
2017-08-09T11:37:12.562Z,86.22
2017-08-09T11:38:13.999Z,87.13
2017-08-09T11:39:15.461Z,85.73
2017-08-09T11:40:16.876Z,81.44
2017-08-09T11:41:18.310Z,82.50
2017-08-09T11:42:19.746Z,83.61
2017-08-09T11:43:21.876Z,84.37
2017-08-09T11:44:23.306Z,84.24
2017-08-09T11:45:24.740Z,84.88
2017-08-09T11:46:26.166Z,85.12
2017-08-09T11:47:27.611Z,84.21
2017-08-09T11:48:29.046Z,85.45
2017-08-09T11:49:30.485Z,85.01
2017-08-09T11:50:31.935Z,83.99
2017-08-09T11:51:33.348Z,84.61
2017-08-09T11:52:34.780Z,83.16
2017-08-09T11:53:36.216Z,85.53
2017-08-09T11:54:37.653Z,83.94
2017-08-09T11:55:39.086Z,83.45
2017-08-09T11:56:40.525Z,80.32
2017-08-09T11:57:41.976Z,82.20
2017-08-09T11:58:43.416Z,85.72
2017-08-09T11:59:44.844Z,80.69
2017-08-09T12:00:46.280Z,79.33
2017-08-09T12:01:47.712Z,81.04
2017-08-09T12:02:49.145Z,81.71
2017-08-09T12:03:50.582Z,81.71
2017-08-09T12:04:52.016Z,80.36
2017-08-09T12:05:53.452Z,83.30
2017-08-09T12:06:54.890Z,79.47
2017-08-09T12:07:56.324Z,80.11
2017-08-09T12:08:57.755Z,80.79
2017-08-09T12:09:59.189Z,78.75
2017-08-09T12:11:00.635Z,79.14
2017-08-09T12:12:02.089Z,76.82
2017-08-09T12:13:03.523Z,78.46
2017-08-09T12:14:04.959Z,79.49
2017-08-09T12:15:06.393Z,81.85
2017-08-09T12:16:07.831Z,79.82
2017-08-09T12:17:09.265Z,78.56
2017-08-09T12:18:10.698Z,76.14
2017-08-09T12:19:12.128Z,76.56
2017-08-09T12:20:13.562Z,77.92
2017-08-09T12:21:14.995Z,79.22
2017-08-09T12:22:16.433Z,80.03
2017-08-09T12:23:17.868Z,77.03
2017-08-09T12:24:19.304Z,78.59
2017-08-09T12:25:20.735Z,75.56
2017-08-09T12:26:22.172Z,76.39
2017-08-09T12:27:23.606Z,77.50
2017-08-09T12:28:25.047Z,78.02
2017-08-09T12:29:26.483Z,77.34
2017-08-09T12:30:27.917Z,76.86
2017-08-09T12:31:29.357Z,78.34
2017-08-09T12:32:30.796Z,77.63
2017-08-09T12:33:32.242Z,78.31
2017-08-09T12:34:33.678Z,77.51
2017-08-09T12:35:35.120Z,78.44
2017-08-09T12:36:36.556Z,79.50
2017-08-09T12:37:37.994Z,81.24
2017-08-09T12:38:39.440Z,80.18
2017-08-09T12:39:40.870Z,78.77
2017-08-09T12:40:42.327Z,78.87
2017-08-09T12:41:43.775Z,80.36
2017-08-09T12:42:45.202Z,77.26
2017-08-09T12:43:46.641Z,79.39
2017-08-09T12:44:48.076Z,78.23
2017-08-09T12:45:49.525Z,79.97
2017-08-09T12:46:50.956Z,79.83
2017-08-09T12:47:52.391Z,80.80
2017-08-09T12:48:53.824Z,80.22
2017-08-09T12:49:55.268Z,81.63
2017-08-09T12:50:56.711Z,81.98
2017-08-09T12:51:58.145Z,81.92
2017-08-09T12:52:59.581Z,81.30
2017-08-09T12:54:01.020Z,81.92
2017-08-09T12:55:02.453Z,77.71
2017-08-09T12:56:03.892Z,78.67
2017-08-09T12:57:05.327Z,80.80
2017-08-09T12:58:06.771Z,80.65
2017-08-09T12:59:08.205Z,79.00
2017-08-09T13:00:09.647Z,80.40
2017-08-09T13:01:11.077Z,78.42
2017-08-09T13:02:12.509Z,78.71
2017-08-09T13:03:13.940Z,78.33
2017-08-09T13:04:15.375Z,79.29
2017-08-09T13:05:16.826Z,78.36
2017-08-09T13:06:18.281Z,78.66
2017-08-09T13:07:19.713Z,80.36
2017-08-09T13:08:21.154Z,78.71
2017-08-09T13:09:22.585Z,79.91
2017-08-09T13:10:24.025Z,79.62
2017-08-09T13:11:25.460Z,78.75
2017-08-09T13:12:26.899Z,79.66